This is the latest recevied weather packets stored in our database for station/object ON8GE-13. If no packets are shown the sender has not sent any weather packets the latest 10 day(s).
| Time | Temp. | Humidity | Pressure | Rain* | Wind** | Luminosity | Snow |
|---|---|---|---|---|---|---|---|
| 1777365059 | 12.78° C | 63% | 1021.1 hPa | 0 mm | - | 428 W/m² | - |
| 1777363858 | 12.22° C | 64% | 1021 hPa | 0 mm | - | 462 W/m² | - |
| 1777352459 | 7.22° C | 72% | 1020.8 hPa | 0 mm | - | 22 W/m² | - |
| 1777351257 | 7.22° C | 71% | 1020.7 hPa | 0 mm | - | 4 W/m² | - |
| 1777348255 | 7.22° C | 68% | 1020.8 hPa | 0 mm | - | 0 W/m² | - |
| 1777344655 | 8.33° C | 64% | 1020.8 hPa | 0 mm | - | 0 W/m² | - |
| 1777341652 | 8.33° C | 63% | 1021.3 hPa | 0 mm | - | 0 W/m² | - |
| 1777339854 | 8.89° C | 63% | 1021.3 hPa | 0 mm | - | 0 W/m² | - |
| 1777335656 | 9.44° C | 61% | 1021.4 hPa | 0 mm | - | 0 W/m² | - |
| 1777328459 | 10° C | 63% | 1021.5 hPa | 0 mm | - | 0 W/m² | - |
| 1777326068 | 10° C | 61% | 1021.3 hPa | 0 mm | - | 0 W/m² | - |
| 1777323068 | 11.67° C | 56% | 1021.2 hPa | 0 mm | - | 0 W/m² | - |
| 1777318860 | 13.33° C | 49% | 1021.3 hPa | 0 mm | - | 0 W/m² | - |
| 1777318265 | 13.33° C | 49% | 1021.2 hPa | 0 mm | - | 0 W/m² | - |
| 1777314662 | 14.44° C | 42% | 1021 hPa | 0 mm | - | 34 W/m² | - |
| 1777314061 | 15° C | 42% | 1021 hPa | 0 mm | - | 44 W/m² | - |
| 1777312261 | 16.67° C | 36% | 1021 hPa | 0 mm | - | 54 W/m² | - |
| 1777309260 | 18.33° C | 31% | 1021.1 hPa | 0 mm | - | 228 W/m² | - |
| 1777303862 | 18.89° C | 34% | 1021.5 hPa | 0 mm | - | 432 W/m² | - |
| 1777302658 | 18.89° C | 35% | 1021.6 hPa | 0 mm | - | 472 W/m² | - |
| 1777295458 | 18.33° C | 37% | 1022.8 hPa | 0 mm | - | 688 W/m² | - |
| 1777293656 | 18.33° C | 39% | 1023.2 hPa | 0 mm | - | 714 W/m² | - |
| 1777292458 | 18.33° C | 42% | 1023.3 hPa | 0 mm | - | 716 W/m² | - |
| 1777284658 | 16.11° C | 46% | 1024.2 hPa | 0 mm | - | 670 W/m² | - |
| 1777281657 | 15° C | 50% | 1024.6 hPa | 0 mm | - | 508 W/m² | - |
* Rain latest hour (hover to see other rain measurements)
** Current wind speed in m/s (hover to see current wind gust speed)